Latest Weather Observations for Wyndham Airport

IDW60801

Issued at 9:43 am WST Tuesday 16 August 2022 (issued every 10 minutes, with the page automatically refreshed every 10 minutes)

About weather observations | Map of weather stations | Latest weather observations for WA | Other Formats
Station Details ID: 001006 Name: WYNDHAM AERO Lat: -15.51 Lon: 128.15 Height: 3.8 m
Data from the previous 72 hours. | See also: Recent months at Wyndham Airport
Date/Time
WST
Temp
°C
App
Temp
°C
Dew
Point
°C
Rel
Hum
%
Delta-T
°C
Wind Press
QNH
hPa
Press
MSL
hPa
Rain since
9am
mm
Dir  Spd
km/h
Gust
km/h
Spd
kts
Gust
kts
16/09:30am 30.5 23.4 -4.5 10 15.5 E 24 35 13 19 1016.7 1016.7 0.0
16/09:00am 29.6 22.6 -3.9 11 14.9 E 24 32 13 17 1016.8 1016.8 0.0
16/08:30am 28.4 22.8 -2.6 13 14.0 ESE 17 24 9 13 1016.8 1016.8 0.0
16/08:00am 26.6 21.4 -3.1 14 13.0 ESE 15 20 8 11 1016.7 1016.7 0.0
16/07:30am 23.5 19.7 -0.7 20 10.9 SE 9 11 5 6 1016.3 1016.3 0.0
16/07:00am 19.8 18.2 2.6 32 8.0 CALM 0 0 0 0 1015.9 1015.9 0.0
16/06:30am 14.7 12.2 1.6 41 5.7 SE 4 7 2 4 1015.7 1015.7 0.0
16/06:00am 12.9 8.9 0.6 43 5.1 ESE 11 13 6 7 1015.1 1015.1 0.0
16/05:30am 12.6 9.1 1.0 45 4.9 ESE 9 9 5 5 1014.7 1014.7 0.0
16/05:00am 16.5 12.6 1.0 35 6.8 ESE 11 13 6 7 1014.3 1014.3 0.0
16/04:30am 12.5 9.2 2.7 51 4.3 ESE 9 11 5 6 1014.0 1014.0 0.0
16/04:00am 12.3 10.6 1.9 49 4.5 CALM 0 0 0 0 1013.7 1013.7 0.0
16/03:30am 12.5 10.8 2.1 49 4.5 CALM 0 0 0 0 1013.6 1013.6 0.0
16/03:00am 12.6 10.9 1.6 47 4.7 CALM 0 0 0 0 1013.6 1013.6 0.0
16/02:30am 14.4 12.8 2.6 45 5.2 CALM 0 0 0 0 1013.6 1013.6 0.0
16/02:00am 14.6 13.1 2.8 45 5.3 CALM 0 0 0 0 1013.6 1013.6 0.0
16/01:30am 14.6 13.1 2.8 45 5.3 CALM 0 0 0 0 1013.8 1013.8 0.0
16/01:00am 14.9 13.5 3.4 46 5.2 CALM 0 0 0 0 1013.8 1013.8 0.0
16/12:30am 15.1 13.6 3.0 44 5.5 CALM 0 0 0 0 1013.7 1013.7 0.0
16/12:00am 16.8 15.6 4.8 45 5.7 CALM 0 0 0 0 1013.8 1013.8 0.0
 
Date/Time
WST
Temp
°C
App
Temp
°C
Dew
Point
°C
Rel
Hum
%
Delta-T
°C
Wind Press
QNH
hPa
Press
MSL
hPa
Rain since
9am
mm
Dir  Spd
km/h
Gust
km/h
Spd
kts
Gust
kts
15/11:30pm 18.0 16.8 4.6 41 6.4 CALM 0 0 0 0 1013.9 1013.9 0.0
15/11:00pm 17.2 15.3 3.1 39 6.5 ESE 2 6 1 3 1013.9 1013.9 0.0
15/10:30pm 19.3 17.1 5.4 40 6.8 ESE 6 7 3 4 1014.0 1014.0 0.0
15/10:00pm 19.2 14.7 2.1 32 7.8 ESE 15 17 8 9 1013.9 1013.9 0.0
15/09:30pm 21.0 16.4 1.3 27 9.0 ESE 15 17 8 9 1013.7 1013.7 0.0
15/09:00pm 20.5 16.1 0.4 26 9.0 ESE 13 15 7 8 1013.5 1013.5 0.0
15/08:30pm 22.2 18.7 -1.1 21 10.3 SSE 7 9 4 5 1013.2 1013.2 0.0
15/08:00pm 23.2 19.4 -1.0 20 10.8 SSE 9 11 5 6 1012.9 1012.9 0.0
15/07:30pm 22.6 18.7 -1.5 20 10.6 E 9 17 5 9 1012.5 1012.5 0.0
15/07:00pm 25.6 21.6 -2.1 16 12.3 E 9 11 5 6 1012.2 1012.2 0.0
15/06:30pm 26.0 21.6 -2.6 15 12.6 ESE 11 11 6 6 1011.8 1011.8 0.0
15/06:00pm 26.3 21.6 -1.5 16 12.6 SE 13 17 7 9 1011.6 1011.6 0.0
15/05:30pm 29.3 23.8 -1.9 13 14.3 SE 17 20 9 11 1011.3 1011.3 0.0
15/05:00pm 31.2 25.2 -1.5 12 15.4 SE 20 26 11 14 1011.2 1011.2 0.0
15/04:30pm 32.5 26.1 -1.7 11 16.1 SE 22 30 12 16 1011.0 1011.0 0.0
15/04:00pm 33.1 27.1 -1.3 11 16.4 SE 20 30 11 16 1010.9 1010.9 0.0
15/03:30pm 33.4 27.5 -1.0 11 16.5 SE 20 30 11 16 1010.9 1010.9 0.0
15/03:00pm 33.7 27.0 -0.8 11 16.7 SSE 24 32 13 17 1010.9 1010.9 0.0
15/02:30pm 33.4 27.1 -1.0 11 16.5 SE 22 33 12 18 1010.9 1010.9 0.0
15/02:00pm 34.2 27.8 0.8 12 16.6 SE 24 33 13 18 1011.2 1011.2 0.0
15/01:30pm 33.8 28.7 0.5 12 16.4 ESE 17 26 9 14 1011.4 1011.4 0.0
15/01:00pm 34.1 28.2 -0.5 11 16.9 SSE 20 33 11 18 1011.9 1011.9 0.0
15/12:30pm 33.7 27.8 -0.8 11 16.7 SE 20 30 11 16 1012.5 1012.5 0.0
15/12:00pm 33.2 28.4 0.0 12 16.2 SE 15 26 8 14 1013.0 1013.0 0.0
15/11:30am 33.7 28.0 0.4 12 16.4 SE 20 32 11 17 1013.6 1013.6 0.0
15/11:00am 32.4 26.9 0.5 13 15.6 ESE 19 28 10 15 1014.2 1014.2 0.0
15/10:30am 31.8 27.0 0.0 13 15.4 SE 15 26 8 14 1014.6 1014.6 0.0
15/10:00am 31.8 25.3 0.0 13 15.4 SE 24 32 13 17 1015.0 1015.0 0.0
15/09:30am 31.4 25.3 0.7 14 15.0 SE 22 32 12 17 1015.4 1015.4 0.0
15/09:00am 30.0 23.8 -0.4 14 14.4 SE 22 32 12 17 1015.5 1015.5 0.0
15/08:30am 29.7 24.0 0.3 15 14.1 SE 20 26 11 14 1015.7 1015.7 0.0
15/08:00am 28.0 24.9 1.5 18 12.8 SSE 7 15 4 8 1015.6 1015.6 0.0
15/07:30am 26.5 23.5 1.7 20 11.9 WSW 7 9 4 5 1015.5 1015.5 0.0
15/07:00am 23.2 21.7 5.2 31 9.0 WSW 2 7 1 4 1015.3 1015.3 0.0
15/06:30am 19.7 17.2 4.6 37 7.3 WSW 7 9 4 5 1015.2 1015.2 0.0
15/06:00am 17.8 15.3 4.7 42 6.2 WSW 7 9 4 5 1014.8 1014.8 0.0
15/05:30am 16.5 13.6 4.9 46 5.5 WSW 9 13 5 7 1014.3 1014.3 0.0
15/05:00am 16.6 14.1 4.6 45 5.7 WSW 7 11 4 6 1013.9 1013.9 0.0
15/04:30am 17.2 14.8 4.5 43 6.0 WSW 6 9 3 5 1013.7 1013.7 0.0
15/04:00am 18.8 16.2 4.2 38 6.9 N 7 13 4 7 1013.5 1013.5 0.0
15/03:30am 16.9 15.1 5.2 46 5.6 SW 4 11 2 6 1013.3 1013.3 0.0
15/03:00am 17.9 16.1 5.2 43 6.1 W 4 6 2 3 1013.2 1013.2 0.0
15/02:30am 19.6 17.2 5.3 39 7.0 NW 7 9 4 5 1013.2 1013.2 0.0
15/02:00am 18.0 16.4 6.5 47 5.7 NW 4 9 2 5 1013.5 1013.5 0.0
15/01:30am 20.3 18.6 7.7 44 6.5 NW 6 9 3 5 1013.4 1013.4 0.0
15/01:00am 20.8 18.7 5.6 37 7.5 NNW 6 9 3 5 1013.5 1013.5 0.0
15/12:30am 21.7 18.9 5.2 34 8.2 E 9 13 5 7 1013.6 1013.6 0.0
15/12:00am 23.7 19.4 3.1 26 9.9 ESE 15 17 8 9 1013.6 1013.6 0.0
 
Date/Time
WST
Temp
°C
App
Temp
°C
Dew
Point
°C
Rel
Hum
%
Delta-T
°C
Wind Press
QNH
hPa
Press
MSL
hPa
Rain since
9am
mm
Dir  Spd
km/h
Gust
km/h
Spd
kts
Gust
kts
14/11:30pm 23.4 20.8 3.4 27 9.7 E 6 9 3 5 1013.6 1013.6 0.0
14/11:00pm 25.0 20.8 3.6 25 10.5 E 15 17 8 9 1013.6 1013.6 0.0
14/10:30pm 23.7 19.6 4.1 28 9.6 ESE 15 17 8 9 1013.5 1013.5 0.0
14/10:00pm 21.9 19.0 4.9 33 8.4 WNW 9 15 5 8 1013.4 1013.4 0.0
14/09:30pm 23.8 22.0 7.0 34 8.7 W 6 9 3 5 1013.3 1013.3 0.0
14/09:00pm 23.7 22.1 8.6 38 8.1 W 7 9 4 5 1013.3 1013.3 0.0
14/08:30pm 25.9 22.2 4.4 25 10.8 E 13 13 7 7 1013.1 1013.1 0.0
14/08:00pm 25.6 21.8 4.1 25 10.7 ESE 13 13 7 7 1013.0 1013.0 0.0
14/07:30pm 25.6 21.9 4.7 26 10.5 SE 13 15 7 8 1012.6 1012.6 0.0
14/07:00pm 25.9 21.4 4.4 25 10.8 SE 17 17 9 9 1012.2 1012.2 0.0
14/06:30pm 27.9 23.1 4.9 23 11.8 SE 19 20 10 11 1011.8 1011.8 0.0
14/06:00pm 28.5 24.1 4.7 22 12.2 SE 17 17 9 9 1011.5 1011.5 0.0
14/05:30pm 30.9 25.9 4.6 19 13.7 ESE 20 24 11 13 1011.0 1011.0 0.0
14/05:00pm 32.6 26.8 4.4 17 14.8 SE 24 30 13 16 1010.8 1010.8 0.0
14/04:30pm 33.9 28.9 4.6 16 15.5 SSE 20 26 11 14 1010.5 1010.5 0.0
14/04:00pm 34.6 30.3 5.1 16 15.8 S 17 26 9 14 1010.3 1010.3 0.0
14/03:30pm 34.9 29.1 4.4 15 16.2 SSE 24 35 13 19 1010.2 1010.2 0.0
14/03:00pm 35.3 30.5 5.7 16 16.1 SSE 20 32 11 17 1010.1 1010.1 0.0
14/02:30pm 35.6 30.9 5.9 16 16.2 SSE 20 32 11 17 1010.1 1010.1 0.0
14/02:00pm 35.1 29.9 5.5 16 16.0 SE 22 39 12 21 1010.4 1010.4 0.0
14/01:30pm 35.4 32.1 6.6 17 15.8 SE 13 28 7 15 1010.9 1010.9 0.0
14/01:00pm 34.4 31.5 6.7 18 15.2 ESE 11 24 6 13 1011.4 1011.4 0.0
14/12:30pm 34.4 31.0 7.5 19 14.9 E 15 26 8 14 1012.0 1012.0 0.0
14/12:00pm 34.5 31.3 6.7 18 15.2 E 13 28 7 15 1012.6 1012.6 0.0
14/11:30am 34.3 30.7 6.6 18 15.1 E 15 26 8 14 1013.2 1013.2 0.0
14/11:00am 33.3 29.3 6.6 19 14.5 E 17 26 9 14 1013.8 1013.8 0.0
14/10:30am 33.1 29.0 6.4 19 14.5 ESE 17 26 9 14 1014.2 1014.2 0.0
14/10:00am 32.1 27.5 6.3 20 13.9 E 20 33 11 18 1014.6 1014.6 0.0
14/09:30am 32.0 26.6 6.2 20 13.8 ESE 24 35 13 19 1014.9 1014.9 0.0
14/09:00am 31.5 26.0 5.8 20 13.7 ESE 24 32 13 17 1015.0 1015.0 0.0
14/08:30am 30.0 25.9 6.0 22 12.7 SE 17 20 9 11 1015.2 1015.2 0.0
14/08:00am 27.7 26.2 9.0 31 10.3 S 7 11 4 6 1015.1 1015.1 0.0
14/07:30am 25.2 25.6 11.4 42 7.8 CALM 0 0 0 0 1014.9 1014.9 0.0
14/07:00am 23.0 23.3 13.5 55 5.5 E 4 6 2 3 1014.8 1014.8 0.0
14/06:30am 19.6 20.5 12.8 65 3.8 CALM 0 0 0 0 1014.4 1014.4 0.0
14/06:00am 18.6 19.3 12.1 66 3.6 CALM 0 0 0 0 1014.0 1014.0 0.0
14/05:30am 18.6 19.3 12.1 66 3.6 CALM 0 0 0 0 1013.8 1013.8 0.0
14/05:00am 19.1 19.0 13.3 69 3.3 E 6 7 3 4 1013.1 1013.1 0.0
14/04:30am 18.8 18.4 12.3 66 3.6 E 6 7 3 4 1012.9 1012.9 0.0
14/04:00am 18.6 19.1 12.8 69 3.3 E 2 7 1 4 1012.6 1012.6 0.0
14/03:30am 19.1 18.8 13.3 69 3.3 E 7 9 4 5 1012.5 1012.5 0.0
14/03:00am 19.3 20.0 12.3 64 3.9 CALM 0 0 0 0 1012.6 1012.6 0.0
14/02:30am 19.7 20.5 12.7 64 3.9 CALM 0 0 0 0 1012.7 1012.7 0.0
14/02:00am 20.3 21.3 13.3 64 4.0 CALM 0 2 0 1 1012.8 1012.8 0.0
14/01:30am 21.5 21.2 13.4 60 4.7 E 7 9 4 5 1013.0 1013.0 0.0
14/01:00am 21.9 22.2 14.5 63 4.3 E 6 7 3 4 1013.0 1013.0 0.0
14/12:30am 22.3 20.9 14.4 61 4.6 ESE 15 17 8 9 1013.2 1013.2 0.0
14/12:00am 22.3 20.0 14.2 60 4.7 ESE 19 20 10 11 1013.3 1013.3 0.0
 
Date/Time
WST
Temp
°C
App
Temp
°C
Dew
Point
°C
Rel
Hum
%
Delta-T
°C
Wind Press
QNH
hPa
Press
MSL
hPa
Rain since
9am
mm
Dir  Spd
km/h
Gust
km/h
Spd
kts
Gust
kts
13/11:30pm 22.2 21.1 14.3 61 4.6 E 13 13 7 7 1013.2 1013.2 0.0
13/11:00pm 22.7 21.8 13.7 56 5.2 E 11 13 6 7 1013.2 1013.2 0.0
13/10:30pm 23.0 21.1 12.9 53 5.8 ESE 15 17 8 9 1013.2 1013.2 0.0
13/10:00pm 23.4 21.7 12.4 50 6.3 SSW 13 15 7 8 1013.2 1013.2 0.0
13/09:30pm 22.7 21.8 11.4 49 6.3 SSW 7 11 4 6 1013.1 1013.1 0.0
13/09:00pm 24.1 23.9 13.0 50 6.4 SSW 6 9 3 5 1013.0 1013.0 0.0
13/08:30pm 23.9 24.0 10.2 42 7.5 CALM 0 0 0 0 1012.8 1012.8 0.0
13/08:00pm 25.4 24.5 10.8 40 8.2 SSW 6 7 3 4 1012.6 1012.6 0.0
13/07:30pm 28.2 27.4 11.7 36 9.5 SSW 7 9 4 5 1012.5 1012.5 0.0
13/07:00pm 27.2 26.5 12.0 38 8.8 NNW 7 11 4 6 1012.2 1012.2 0.0
13/06:30pm 28.2 25.4 8.5 29 10.8 ESE 13 17 7 9 1011.7 1011.7 0.0
13/06:00pm 29.1 27.0 8.2 27 11.4 ESE 9 11 5 6 1011.4 1011.4 0.0
13/05:30pm 30.5 28.0 8.3 25 12.2 ESE 11 15 6 8 1011.0 1011.0 0.0
13/05:00pm 32.8 29.9 8.3 22 13.7 SE 13 17 7 9 1010.8 1010.8 0.0
13/04:30pm 34.2 30.7 8.8 21 14.4 SE 17 20 9 11 1010.7 1010.7 0.0
13/04:00pm 34.5 30.9 8.3 20 14.7 SE 17 24 9 13 1010.5 1010.5 0.0
13/03:30pm 34.8 32.0 8.5 20 14.8 ESE 13 20 7 11 1010.4 1010.4 0.0
13/03:00pm 35.3 32.2 8.9 20 15.0 SSE 15 26 8 14 1010.5 1010.5 0.0
13/02:30pm 35.3 31.8 8.9 20 15.0 E 17 26 9 14 1010.8 1010.8 0.0
13/02:00pm 34.7 31.5 8.4 20 14.8 ESE 15 24 8 13 1011.2 1011.2 0.0
13/01:30pm 34.8 31.6 8.5 20 14.8 E 15 22 8 12 1011.5 1011.5 0.0
13/01:00pm 35.0 31.5 8.7 20 14.9 ESE 17 28 9 15 1012.1 1012.1 0.0
13/12:30pm 34.8 30.9 8.5 20 14.8 E 19 32 10 17 1012.6 1012.6 0.0
13/12:00pm 34.3 29.7 8.1 20 14.7 ESE 22 33 12 18 1013.1 1013.1 0.0
13/11:30am 33.3 28.3 8.0 21 14.1 E 24 39 13 21 1013.6 1013.6 0.0
13/11:00am 33.2 28.2 7.9 21 14.0 ESE 24 33 13 18 1014.0 1014.0 0.0
13/10:30am 32.7 26.8 7.5 21 13.9 E 28 35 15 19 1014.6 1014.6 0.0
13/10:00am 32.4 27.0 8.0 22 13.5 E 26 35 14 19 1015.0 1015.0 0.0

Other formats

Comma delimited format used in spreadsheet applications
http://www.bom.gov.au/fwo/IDW60801/IDW60801.95214.axf

JavaScript Object Notation format (JSON) in row-major order
http://www.bom.gov.au/fwo/IDW60801/IDW60801.95214.json

Data quality

Most of these data are generated automatically and are frequently updated. Quality checks on data are not normally performed. It is possible for incorrect values to appear. Refer to information at About Latest Weather Observations and please check the disclaimer before using these data.